sensor_id;sensor_type;location;lat;lon;timestamp;P1;durP1;ratioP1;P2;durP2;ratioP2
13959;SDS011;7052;51.050;3.716;2023-05-07T00:04:57;9.05;;;4.65;;
13959;SDS011;7052;51.050;3.716;2023-05-07T00:07:24;8.20;;;4.43;;
13959;SDS011;7052;51.050;3.716;2023-05-07T00:09:51;9.35;;;4.80;;
13959;SDS011;7052;51.050;3.716;2023-05-07T00:12:18;8.80;;;4.40;;
13959;SDS011;7052;51.050;3.716;2023-05-07T00:14:46;7.38;;;4.07;;
13959;SDS011;7052;51.050;3.716;2023-05-07T00:17:13;9.23;;;4.35;;
13959;SDS011;7052;51.050;3.716;2023-05-07T00:19:41;11.38;;;4.28;;
13959;SDS011;7052;51.050;3.716;2023-05-07T00:22:13;8.60;;;4.03;;
13959;SDS011;7052;51.050;3.716;2023-05-07T00:24:40;10.40;;;4.63;;
13959;SDS011;7052;51.050;3.716;2023-05-07T00:27:08;10.82;;;4.00;;
13959;SDS011;7052;51.050;3.716;2023-05-07T00:29:35;8.52;;;4.22;;
13959;SDS011;7052;51.050;3.716;2023-05-07T00:32:02;10.55;;;5.55;;
13959;SDS011;7052;51.050;3.716;2023-05-07T00:34:30;11.63;;;4.50;;
13959;SDS011;7052;51.050;3.716;2023-05-07T00:37:00;11.25;;;5.00;;
13959;SDS011;7052;51.050;3.716;2023-05-07T00:39:28;8.45;;;3.85;;
13959;SDS011;7052;51.050;3.716;2023-05-07T00:41:58;7.22;;;3.85;;
13959;SDS011;7052;51.050;3.716;2023-05-07T00:44:26;8.68;;;4.07;;
13959;SDS011;7052;51.050;3.716;2023-05-07T00:46:53;8.75;;;4.03;;
13959;SDS011;7052;51.050;3.716;2023-05-07T00:49:21;9.50;;;4.40;;
13959;SDS011;7052;51.050;3.716;2023-05-07T00:51:51;9.13;;;4.38;;
13959;SDS011;7052;51.050;3.716;2023-05-07T00:54:20;10.18;;;4.28;;
13959;SDS011;7052;51.050;3.716;2023-05-07T00:56:48;10.45;;;4.97;;
13959;SDS011;7052;51.050;3.716;2023-05-07T00:59:16;7.40;;;4.10;;
13959;SDS011;7052;51.050;3.716;2023-05-07T01:01:43;10.75;;;4.40;;
13959;SDS011;7052;51.050;3.716;2023-05-07T01:04:10;10.05;;;4.15;;
13959;SDS011;7052;51.050;3.716;2023-05-07T01:06:37;8.23;;;3.80;;
13959;SDS011;7052;51.050;3.716;2023-05-07T01:09:05;7.30;;;3.80;;
13959;SDS011;7052;51.050;3.716;2023-05-07T01:11:35;10.38;;;4.30;;
13959;SDS011;7052;51.050;3.716;2023-05-07T01:14:03;9.15;;;4.05;;
13959;SDS011;7052;51.050;3.716;2023-05-07T01:16:30;10.07;;;4.55;;
13959;SDS011;7052;51.050;3.716;2023-05-07T01:18:58;10.38;;;4.30;;
13959;SDS011;7052;51.050;3.716;2023-05-07T01:21:28;7.43;;;4.05;;
13959;SDS011;7052;51.050;3.716;2023-05-07T01:24:02;8.13;;;4.15;;
13959;SDS011;7052;51.050;3.716;2023-05-07T01:26:30;9.40;;;4.93;;
13959;SDS011;7052;51.050;3.716;2023-05-07T01:28:57;9.73;;;4.50;;
13959;SDS011;7052;51.050;3.716;2023-05-07T01:31:25;9.52;;;4.20;;
13959;SDS011;7052;51.050;3.716;2023-05-07T01:33:52;8.90;;;4.30;;
13959;SDS011;7052;51.050;3.716;2023-05-07T01:36:22;8.55;;;4.32;;
13959;SDS011;7052;51.050;3.716;2023-05-07T01:38:52;6.88;;;4.00;;
13959;SDS011;7052;51.050;3.716;2023-05-07T01:41:21;9.68;;;4.30;;
13959;SDS011;7052;51.050;3.716;2023-05-07T01:43:50;8.93;;;4.32;;
13959;SDS011;7052;51.050;3.716;2023-05-07T01:46:18;7.85;;;4.63;;
13959;SDS011;7052;51.050;3.716;2023-05-07T01:48:48;9.88;;;4.72;;
13959;SDS011;7052;51.050;3.716;2023-05-07T01:51:17;6.68;;;4.10;;
13959;SDS011;7052;51.050;3.716;2023-05-07T01:53:45;12.10;;;5.15;;
13959;SDS011;7052;51.050;3.716;2023-05-07T01:56:15;8.57;;;4.32;;
13959;SDS011;7052;51.050;3.716;2023-05-07T01:58:44;14.15;;;5.57;;
13959;SDS011;7052;51.050;3.716;2023-05-07T02:01:12;10.18;;;4.95;;
13959;SDS011;7052;51.050;3.716;2023-05-07T02:03:40;10.10;;;5.10;;
13959;SDS011;7052;51.050;3.716;2023-05-07T02:06:08;11.60;;;4.82;;
13959;SDS011;7052;51.050;3.716;2023-05-07T02:08:35;8.55;;;4.63;;
13959;SDS011;7052;51.050;3.716;2023-05-07T02:11:04;8.02;;;4.65;;
13959;SDS011;7052;51.050;3.716;2023-05-07T02:13:31;9.23;;;4.93;;
13959;SDS011;7052;51.050;3.716;2023-05-07T02:16:02;12.27;;;5.43;;
13959;SDS011;7052;51.050;3.716;2023-05-07T02:18:30;9.50;;;4.53;;
13959;SDS011;7052;51.050;3.716;2023-05-07T02:20:58;11.70;;;5.18;;
13959;SDS011;7052;51.050;3.716;2023-05-07T02:23:25;11.40;;;5.07;;
13959;SDS011;7052;51.050;3.716;2023-05-07T02:25:53;10.73;;;4.90;;
13959;SDS011;7052;51.050;3.716;2023-05-07T02:28:22;9.93;;;4.88;;
13959;SDS011;7052;51.050;3.716;2023-05-07T02:30:51;9.70;;;5.28;;
13959;SDS011;7052;51.050;3.716;2023-05-07T02:33:19;10.20;;;4.90;;
13959;SDS011;7052;51.050;3.716;2023-05-07T02:35:46;10.25;;;5.32;;
13959;SDS011;7052;51.050;3.716;2023-05-07T02:38:16;11.48;;;5.25;;
13959;SDS011;7052;51.050;3.716;2023-05-07T02:40:44;9.05;;;4.50;;
13959;SDS011;7052;51.050;3.716;2023-05-07T02:43:12;9.30;;;4.75;;
13959;SDS011;7052;51.050;3.716;2023-05-07T02:45:39;10.82;;;4.97;;
13959;SDS011;7052;51.050;3.716;2023-05-07T02:48:08;8.82;;;4.38;;
13959;SDS011;7052;51.050;3.716;2023-05-07T02:50:36;11.25;;;4.55;;
13959;SDS011;7052;51.050;3.716;2023-05-07T02:53:03;8.80;;;4.55;;
13959;SDS011;7052;51.050;3.716;2023-05-07T02:55:30;9.02;;;4.60;;
13959;SDS011;7052;51.050;3.716;2023-05-07T02:57:58;10.07;;;4.95;;
13959;SDS011;7052;51.050;3.716;2023-05-07T03:00:25;8.98;;;4.85;;
13959;SDS011;7052;51.050;3.716;2023-05-07T03:02:58;10.13;;;4.47;;
13959;SDS011;7052;51.050;3.716;2023-05-07T03:05:25;5.75;;;4.50;;
13959;SDS011;7052;51.050;3.716;2023-05-07T03:07:55;7.97;;;4.38;;
13959;SDS011;7052;51.050;3.716;2023-05-07T03:10:22;9.23;;;4.80;;
13959;SDS011;7052;51.050;3.716;2023-05-07T03:12:50;8.88;;;4.85;;
13959;SDS011;7052;51.050;3.716;2023-05-07T03:15:18;9.55;;;4.85;;
13959;SDS011;7052;51.050;3.716;2023-05-07T03:17:45;9.77;;;5.43;;
13959;SDS011;7052;51.050;3.716;2023-05-07T03:20:13;8.90;;;5.35;;
13959;SDS011;7052;51.050;3.716;2023-05-07T03:22:41;10.70;;;5.30;;
13959;SDS011;7052;51.050;3.716;2023-05-07T03:25:11;8.50;;;4.95;;
13959;SDS011;7052;51.050;3.716;2023-05-07T03:27:42;8.95;;;5.40;;
13959;SDS011;7052;51.050;3.716;2023-05-07T03:30:10;9.88;;;5.45;;
13959;SDS011;7052;51.050;3.716;2023-05-07T03:32:39;8.95;;;5.50;;
13959;SDS011;7052;51.050;3.716;2023-05-07T03:35:06;8.88;;;5.22;;
13959;SDS011;7052;51.050;3.716;2023-05-07T03:37:35;13.48;;;5.25;;
13959;SDS011;7052;51.050;3.716;2023-05-07T03:40:02;8.07;;;5.32;;
13959;SDS011;7052;51.050;3.716;2023-05-07T03:42:32;9.85;;;5.30;;
13959;SDS011;7052;51.050;3.716;2023-05-07T03:45:12;11.57;;;5.28;;
13959;SDS011;7052;51.050;3.716;2023-05-07T03:47:39;10.32;;;5.82;;
13959;SDS011;7052;51.050;3.716;2023-05-07T03:50:07;9.57;;;5.35;;
13959;SDS011;7052;51.050;3.716;2023-05-07T03:52:35;9.27;;;5.38;;
13959;SDS011;7052;51.050;3.716;2023-05-07T03:55:02;7.80;;;5.78;;
13959;SDS011;7052;51.050;3.716;2023-05-07T03:57:30;10.70;;;5.10;;
13959;SDS011;7052;51.050;3.716;2023-05-07T04:00:01;8.50;;;5.57;;
13959;SDS011;7052;51.050;3.716;2023-05-07T04:02:30;9.65;;;5.43;;
13959;SDS011;7052;51.050;3.716;2023-05-07T04:04:57;12.90;;;5.63;;
13959;SDS011;7052;51.050;3.716;2023-05-07T04:07:25;9.63;;;5.50;;
13959;SDS011;7052;51.050;3.716;2023-05-07T04:09:52;9.50;;;5.28;;
13959;SDS011;7052;51.050;3.716;2023-05-07T04:12:21;13.93;;;6.15;;
13959;SDS011;7052;51.050;3.716;2023-05-07T04:14:50;10.65;;;5.95;;
13959;SDS011;7052;51.050;3.716;2023-05-07T04:17:20;9.07;;;5.72;;
13959;SDS011;7052;51.050;3.716;2023-05-07T04:19:46;10.40;;;5.97;;
13959;SDS011;7052;51.050;3.716;2023-05-07T04:22:13;11.90;;;5.75;;
13959;SDS011;7052;51.050;3.716;2023-05-07T04:24:43;9.55;;;6.00;;
13959;SDS011;7052;51.050;3.716;2023-05-07T04:27:10;11.68;;;6.25;;
13959;SDS011;7052;51.050;3.716;2023-05-07T04:29:37;13.15;;;6.13;;
13959;SDS011;7052;51.050;3.716;2023-05-07T04:32:08;8.45;;;6.20;;
13959;SDS011;7052;51.050;3.716;2023-05-07T04:34:35;12.50;;;6.68;;
13959;SDS011;7052;51.050;3.716;2023-05-07T04:37:03;9.27;;;6.10;;
13959;SDS011;7052;51.050;3.716;2023-05-07T04:39:32;12.35;;;6.47;;
13959;SDS011;7052;51.050;3.716;2023-05-07T04:42:00;14.10;;;6.53;;
13959;SDS011;7052;51.050;3.716;2023-05-07T04:44:29;14.52;;;6.68;;
13959;SDS011;7052;51.050;3.716;2023-05-07T04:46:57;10.25;;;5.75;;
13959;SDS011;7052;51.050;3.716;2023-05-07T04:49:30;8.35;;;5.47;;
13959;SDS011;7052;51.050;3.716;2023-05-07T04:51:59;28.95;;;9.02;;
13959;SDS011;7052;51.050;3.716;2023-05-07T04:54:28;23.52;;;8.00;;
13959;SDS011;7052;51.050;3.716;2023-05-07T04:56:57;12.32;;;6.40;;
13959;SDS011;7052;51.050;3.716;2023-05-07T04:59:24;8.13;;;5.55;;
13959;SDS011;7052;51.050;3.716;2023-05-07T05:01:52;11.32;;;5.95;;
13959;SDS011;7052;51.050;3.716;2023-05-07T05:04:23;14.20;;;6.20;;
13959;SDS011;7052;51.050;3.716;2023-05-07T05:06:53;10.55;;;5.35;;
13959;SDS011;7052;51.050;3.716;2023-05-07T05:09:21;11.52;;;5.70;;
13959;SDS011;7052;51.050;3.716;2023-05-07T05:11:49;9.45;;;5.68;;
13959;SDS011;7052;51.050;3.716;2023-05-07T05:14:18;10.50;;;5.80;;
13959;SDS011;7052;51.050;3.716;2023-05-07T05:16:45;12.07;;;5.45;;
13959;SDS011;7052;51.050;3.716;2023-05-07T05:19:14;9.50;;;5.57;;
13959;SDS011;7052;51.050;3.716;2023-05-07T05:21:43;9.45;;;5.65;;
13959;SDS011;7052;51.050;3.716;2023-05-07T05:24:12;8.68;;;5.60;;
13959;SDS011;7052;51.050;3.716;2023-05-07T05:26:40;11.43;;;5.75;;
13959;SDS011;7052;51.050;3.716;2023-05-07T05:29:07;10.48;;;5.43;;
13959;SDS011;7052;51.050;3.716;2023-05-07T05:31:36;12.30;;;5.35;;
13959;SDS011;7052;51.050;3.716;2023-05-07T05:34:03;10.27;;;5.40;;
13959;SDS011;7052;51.050;3.716;2023-05-07T05:36:31;10.48;;;5.28;;
13959;SDS011;7052;51.050;3.716;2023-05-07T05:38:58;12.98;;;5.70;;
13959;SDS011;7052;51.050;3.716;2023-05-07T05:41:34;9.52;;;6.10;;
13959;SDS011;7052;51.050;3.716;2023-05-07T05:44:01;15.25;;;6.40;;
13959;SDS011;7052;51.050;3.716;2023-05-07T05:46:29;12.48;;;6.75;;
13959;SDS011;7052;51.050;3.716;2023-05-07T05:48:56;11.40;;;6.22;;
13959;SDS011;7052;51.050;3.716;2023-05-07T05:51:25;11.85;;;6.50;;
13959;SDS011;7052;51.050;3.716;2023-05-07T05:53:53;13.20;;;7.00;;
13959;SDS011;7052;51.050;3.716;2023-05-07T05:56:22;11.48;;;6.10;;
13959;SDS011;7052;51.050;3.716;2023-05-07T05:58:52;9.77;;;6.22;;
13959;SDS011;7052;51.050;3.716;2023-05-07T06:01:20;8.93;;;6.18;;
13959;SDS011;7052;51.050;3.716;2023-05-07T06:03:47;9.07;;;6.03;;
13959;SDS011;7052;51.050;3.716;2023-05-07T06:06:21;10.80;;;6.45;;
13959;SDS011;7052;51.050;3.716;2023-05-07T06:08:48;10.93;;;6.47;;
13959;SDS011;7052;51.050;3.716;2023-05-07T06:11:15;10.23;;;6.40;;
13959;SDS011;7052;51.050;3.716;2023-05-07T06:13:42;10.57;;;7.03;;
13959;SDS011;7052;51.050;3.716;2023-05-07T06:16:13;9.85;;;6.50;;
13959;SDS011;7052;51.050;3.716;2023-05-07T06:18:41;11.13;;;7.43;;
13959;SDS011;7052;51.050;3.716;2023-05-07T06:21:10;10.82;;;7.20;;
13959;SDS011;7052;51.050;3.716;2023-05-07T06:23:40;10.43;;;6.85;;
13959;SDS011;7052;51.050;3.716;2023-05-07T06:26:10;8.52;;;6.47;;
13959;SDS011;7052;51.050;3.716;2023-05-07T06:28:38;9.15;;;6.25;;
13959;SDS011;7052;51.050;3.716;2023-05-07T06:31:13;11.02;;;6.10;;
13959;SDS011;7052;51.050;3.716;2023-05-07T06:33:42;9.80;;;6.03;;
13959;SDS011;7052;51.050;3.716;2023-05-07T06:36:14;7.85;;;5.57;;
13959;SDS011;7052;51.050;3.716;2023-05-07T06:38:42;9.25;;;5.80;;
13959;SDS011;7052;51.050;3.716;2023-05-07T06:41:09;9.80;;;6.20;;
13959;SDS011;7052;51.050;3.716;2023-05-07T06:43:36;9.27;;;5.40;;
13959;SDS011;7052;51.050;3.716;2023-05-07T06:46:03;10.38;;;6.05;;
13959;SDS011;7052;51.050;3.716;2023-05-07T06:48:37;7.93;;;5.90;;
13959;SDS011;7052;51.050;3.716;2023-05-07T06:51:04;7.72;;;5.38;;
13959;SDS011;7052;51.050;3.716;2023-05-07T06:53:36;9.80;;;5.57;;
13959;SDS011;7052;51.050;3.716;2023-05-07T06:56:09;7.97;;;5.75;;
13959;SDS011;7052;51.050;3.716;2023-05-07T06:58:36;7.82;;;5.85;;
13959;SDS011;7052;51.050;3.716;2023-05-07T07:01:03;8.77;;;5.70;;
13959;SDS011;7052;51.050;3.716;2023-05-07T07:03:30;8.93;;;6.03;;
13959;SDS011;7052;51.050;3.716;2023-05-07T07:05:59;9.23;;;5.78;;
13959;SDS011;7052;51.050;3.716;2023-05-07T07:08:28;9.63;;;5.75;;
13959;SDS011;7052;51.050;3.716;2023-05-07T07:10:55;8.70;;;5.72;;
13959;SDS011;7052;51.050;3.716;2023-05-07T07:13:23;9.05;;;5.88;;
13959;SDS011;7052;51.050;3.716;2023-05-07T07:15:50;8.63;;;5.55;;
13959;SDS011;7052;51.050;3.716;2023-05-07T07:18:19;8.23;;;5.72;;
13959;SDS011;7052;51.050;3.716;2023-05-07T07:20:52;10.05;;;6.15;;
13959;SDS011;7052;51.050;3.716;2023-05-07T07:23:19;7.88;;;5.57;;
13959;SDS011;7052;51.050;3.716;2023-05-07T07:25:46;9.63;;;5.78;;
13959;SDS011;7052;51.050;3.716;2023-05-07T07:28:13;8.35;;;4.95;;
13959;SDS011;7052;51.050;3.716;2023-05-07T07:30:40;8.20;;;4.72;;
13959;SDS011;7052;51.050;3.716;2023-05-07T07:33:10;8.82;;;5.30;;
13959;SDS011;7052;51.050;3.716;2023-05-07T07:35:38;7.28;;;5.35;;
13959;SDS011;7052;51.050;3.716;2023-05-07T07:38:07;9.25;;;5.10;;
13959;SDS011;7052;51.050;3.716;2023-05-07T07:40:35;9.60;;;5.13;;
13959;SDS011;7052;51.050;3.716;2023-05-07T07:43:04;9.40;;;5.22;;
13959;SDS011;7052;51.050;3.716;2023-05-07T07:45:31;8.20;;;5.32;;
13959;SDS011;7052;51.050;3.716;2023-05-07T07:47:58;9.98;;;5.30;;
13959;SDS011;7052;51.050;3.716;2023-05-07T07:50:25;8.18;;;5.60;;
13959;SDS011;7052;51.050;3.716;2023-05-07T07:52:53;7.57;;;4.70;;
13959;SDS011;7052;51.050;3.716;2023-05-07T07:55:22;8.43;;;4.85;;
13959;SDS011;7052;51.050;3.716;2023-05-07T07:57:49;6.80;;;5.00;;
13959;SDS011;7052;51.050;3.716;2023-05-07T08:00:20;9.18;;;5.28;;
13959;SDS011;7052;51.050;3.716;2023-05-07T08:02:48;10.15;;;5.07;;
13959;SDS011;7052;51.050;3.716;2023-05-07T08:05:15;9.00;;;4.63;;
13959;SDS011;7052;51.050;3.716;2023-05-07T08:07:42;8.25;;;4.95;;
13959;SDS011;7052;51.050;3.716;2023-05-07T08:10:11;9.60;;;5.05;;
13959;SDS011;7052;51.050;3.716;2023-05-07T08:12:39;6.93;;;4.45;;
13959;SDS011;7052;51.050;3.716;2023-05-07T08:15:07;7.18;;;4.68;;
13959;SDS011;7052;51.050;3.716;2023-05-07T08:17:35;9.52;;;5.00;;
13959;SDS011;7052;51.050;3.716;2023-05-07T08:20:02;8.50;;;4.80;;
13959;SDS011;7052;51.050;3.716;2023-05-07T08:22:32;6.72;;;4.90;;
13959;SDS011;7052;51.050;3.716;2023-05-07T08:25:00;7.72;;;5.38;;
13959;SDS011;7052;51.050;3.716;2023-05-07T08:27:27;11.43;;;5.30;;
13959;SDS011;7052;51.050;3.716;2023-05-07T08:29:55;8.93;;;5.40;;
13959;SDS011;7052;51.050;3.716;2023-05-07T08:32:28;8.45;;;4.90;;
13959;SDS011;7052;51.050;3.716;2023-05-07T08:34:56;6.93;;;4.57;;
13959;SDS011;7052;51.050;3.716;2023-05-07T08:37:25;7.60;;;4.90;;
13959;SDS011;7052;51.050;3.716;2023-05-07T08:39:52;6.75;;;4.60;;
13959;SDS011;7052;51.050;3.716;2023-05-07T08:42:19;7.53;;;4.95;;
13959;SDS011;7052;51.050;3.716;2023-05-07T08:44:49;9.45;;;4.72;;
13959;SDS011;7052;51.050;3.716;2023-05-07T08:47:19;7.25;;;5.18;;
13959;SDS011;7052;51.050;3.716;2023-05-07T08:49:56;10.23;;;5.50;;
13959;SDS011;7052;51.050;3.716;2023-05-07T08:52:24;7.72;;;4.85;;
13959;SDS011;7052;51.050;3.716;2023-05-07T08:54:52;8.63;;;5.38;;
13959;SDS011;7052;51.050;3.716;2023-05-07T08:57:19;8.43;;;4.93;;
13959;SDS011;7052;51.050;3.716;2023-05-07T08:59:49;8.05;;;4.57;;
13959;SDS011;7052;51.050;3.716;2023-05-07T09:02:16;11.23;;;5.63;;
13959;SDS011;7052;51.050;3.716;2023-05-07T09:04:47;8.45;;;4.72;;
13959;SDS011;7052;51.050;3.716;2023-05-07T09:07:15;7.63;;;4.82;;
13959;SDS011;7052;51.050;3.716;2023-05-07T09:09:44;6.65;;;4.68;;
13959;SDS011;7052;51.050;3.716;2023-05-07T09:12:13;8.80;;;4.45;;
13959;SDS011;7052;51.050;3.716;2023-05-07T09:14:40;6.53;;;4.28;;
13959;SDS011;7052;51.050;3.716;2023-05-07T09:17:08;5.95;;;4.00;;
13959;SDS011;7052;51.050;3.716;2023-05-07T09:19:38;9.32;;;5.03;;
13959;SDS011;7052;51.050;3.716;2023-05-07T09:22:11;6.28;;;4.28;;
13959;SDS011;7052;51.050;3.716;2023-05-07T09:24:58;7.20;;;4.50;;
13959;SDS011;7052;51.050;3.716;2023-05-07T09:27:26;4.68;;;3.58;;
13959;SDS011;7052;51.050;3.716;2023-05-07T09:29:53;5.60;;;3.88;;
13959;SDS011;7052;51.050;3.716;2023-05-07T09:32:20;7.95;;;3.85;;
13959;SDS011;7052;51.050;3.716;2023-05-07T09:34:48;7.47;;;3.70;;
13959;SDS011;7052;51.050;3.716;2023-05-07T09:37:18;6.65;;;3.92;;
13959;SDS011;7052;51.050;3.716;2023-05-07T09:39:47;8.02;;;4.22;;
13959;SDS011;7052;51.050;3.716;2023-05-07T09:42:22;6.90;;;4.18;;
13959;SDS011;7052;51.050;3.716;2023-05-07T09:44:56;6.05;;;4.22;;
13959;SDS011;7052;51.050;3.716;2023-05-07T09:47:23;9.00;;;4.60;;
13959;SDS011;7052;51.050;3.716;2023-05-07T09:49:53;7.78;;;4.18;;
13959;SDS011;7052;51.050;3.716;2023-05-07T09:52:34;8.82;;;4.40;;
13959;SDS011;7052;51.050;3.716;2023-05-07T09:55:02;6.90;;;3.92;;
13959;SDS011;7052;51.050;3.716;2023-05-07T09:57:31;5.30;;;3.60;;
13959;SDS011;7052;51.050;3.716;2023-05-07T10:00:00;5.13;;;3.20;;
13959;SDS011;7052;51.050;3.716;2023-05-07T10:02:31;7.35;;;4.50;;
13959;SDS011;7052;51.050;3.716;2023-05-07T10:05:00;6.45;;;4.30;;
13959;SDS011;7052;51.050;3.716;2023-05-07T10:07:35;7.47;;;4.05;;
13959;SDS011;7052;51.050;3.716;2023-05-07T10:10:03;5.80;;;4.40;;
13959;SDS011;7052;51.050;3.716;2023-05-07T10:12:33;7.80;;;4.38;;
13959;SDS011;7052;51.050;3.716;2023-05-07T10:15:04;5.07;;;3.78;;
13959;SDS011;7052;51.050;3.716;2023-05-07T10:17:32;5.57;;;4.03;;
13959;SDS011;7052;51.050;3.716;2023-05-07T10:20:05;5.47;;;3.85;;
13959;SDS011;7052;51.050;3.716;2023-05-07T10:22:50;5.15;;;3.20;;
13959;SDS011;7052;51.050;3.716;2023-05-07T10:25:25;5.68;;;3.55;;
13959;SDS011;7052;51.050;3.716;2023-05-07T10:27:55;4.80;;;3.53;;
13959;SDS011;7052;51.050;3.716;2023-05-07T10:30:27;7.63;;;6.45;;
13959;SDS011;7052;51.050;3.716;2023-05-07T10:33:06;6.88;;;3.42;;
13959;SDS011;7052;51.050;3.716;2023-05-07T10:35:39;6.15;;;3.30;;
13959;SDS011;7052;51.050;3.716;2023-05-07T10:38:18;5.00;;;3.30;;
13959;SDS011;7052;51.050;3.716;2023-05-07T10:40:45;5.25;;;3.10;;
13959;SDS011;7052;51.050;3.716;2023-05-07T10:43:13;4.43;;;3.30;;
13959;SDS011;7052;51.050;3.716;2023-05-07T10:45:40;5.47;;;2.97;;
13959;SDS011;7052;51.050;3.716;2023-05-07T10:48:10;7.45;;;4.63;;
13959;SDS011;7052;51.050;3.716;2023-05-07T10:50:39;5.15;;;2.63;;
13959;SDS011;7052;51.050;3.716;2023-05-07T10:53:25;4.00;;;3.05;;
13959;SDS011;7052;51.050;3.716;2023-05-07T10:58:52;5.38;;;3.35;;
13959;SDS011;7052;51.050;3.716;2023-05-07T11:04:18;4.20;;;2.72;;
13959;SDS011;7052;51.050;3.716;2023-05-07T11:10:05;4.43;;;2.85;;
13959;SDS011;7052;51.050;3.716;2023-05-07T11:12:49;4.53;;;2.70;;
13959;SDS011;7052;51.050;3.716;2023-05-07T11:15:34;3.80;;;2.72;;
13959;SDS011;7052;51.050;3.716;2023-05-07T11:18:03;4.93;;;3.00;;
13959;SDS011;7052;51.050;3.716;2023-05-07T11:20:44;5.10;;;3.20;;
13959;SDS011;7052;51.050;3.716;2023-05-07T11:26:43;4.78;;;2.78;;
13959;SDS011;7052;51.050;3.716;2023-05-07T11:29:14;5.70;;;3.30;;
13959;SDS011;7052;51.050;3.716;2023-05-07T11:31:43;4.10;;;3.30;;
13959;SDS011;7052;51.050;3.716;2023-05-07T11:34:30;4.43;;;3.83;;
13959;SDS011;7052;51.050;3.716;2023-05-07T11:37:04;6.65;;;4.63;;
13959;SDS011;7052;51.050;3.716;2023-05-07T11:39:46;4.05;;;3.65;;
13959;SDS011;7052;51.050;3.716;2023-05-07T11:42:29;6.95;;;5.20;;
13959;SDS011;7052;51.050;3.716;2023-05-07T11:44:58;5.47;;;3.97;;
13959;SDS011;7052;51.050;3.716;2023-05-07T11:47:26;5.90;;;3.83;;
13959;SDS011;7052;51.050;3.716;2023-05-07T11:49:57;4.45;;;3.70;;
13959;SDS011;7052;51.050;3.716;2023-05-07T11:52:30;4.15;;;3.20;;
13959;SDS011;7052;51.050;3.716;2023-05-07T11:54:59;2.90;;;2.60;;
13959;SDS011;7052;51.050;3.716;2023-05-07T11:57:32;3.10;;;2.50;;
13959;SDS011;7052;51.050;3.716;2023-05-07T12:00:00;2.67;;;2.40;;
13959;SDS011;7052;51.050;3.716;2023-05-07T12:02:35;3.28;;;2.30;;
13959;SDS011;7052;51.050;3.716;2023-05-07T12:05:16;7.30;;;3.45;;
13959;SDS011;7052;51.050;3.716;2023-05-07T12:07:47;3.15;;;2.72;;
13959;SDS011;7052;51.050;3.716;2023-05-07T12:10:27;4.45;;;3.03;;
13959;SDS011;7052;51.050;3.716;2023-05-07T12:12:59;4.55;;;3.20;;
13959;SDS011;7052;51.050;3.716;2023-05-07T12:15:27;9.35;;;3.53;;
13959;SDS011;7052;51.050;3.716;2023-05-07T12:17:54;4.70;;;3.25;;
13959;SDS011;7052;51.050;3.716;2023-05-07T12:20:24;7.75;;;3.10;;
13959;SDS011;7052;51.050;3.716;2023-05-07T12:22:52;9.00;;;4.07;;
13959;SDS011;7052;51.050;3.716;2023-05-07T12:25:21;5.30;;;3.15;;
13959;SDS011;7052;51.050;3.716;2023-05-07T12:27:51;3.42;;;3.05;;
13959;SDS011;7052;51.050;3.716;2023-05-07T12:30:24;6.15;;;3.30;;
13959;SDS011;7052;51.050;3.716;2023-05-07T12:32:52;2.40;;;2.15;;
13959;SDS011;7052;51.050;3.716;2023-05-07T12:35:26;3.88;;;2.88;;
13959;SDS011;7052;51.050;3.716;2023-05-07T12:37:57;3.25;;;2.95;;
13959;SDS011;7052;51.050;3.716;2023-05-07T12:40:35;4.97;;;2.95;;
13959;SDS011;7052;51.050;3.716;2023-05-07T12:43:02;6.00;;;3.50;;
13959;SDS011;7052;51.050;3.716;2023-05-07T12:45:41;7.63;;;3.15;;
13959;SDS011;7052;51.050;3.716;2023-05-07T12:48:10;8.27;;;3.10;;
13959;SDS011;7052;51.050;3.716;2023-05-07T12:50:37;4.70;;;3.20;;
13959;SDS011;7052;51.050;3.716;2023-05-07T12:53:06;5.57;;;3.20;;
13959;SDS011;7052;51.050;3.716;2023-05-07T12:55:40;4.40;;;3.20;;
13959;SDS011;7052;51.050;3.716;2023-05-07T12:58:13;3.53;;;2.67;;
13959;SDS011;7052;51.050;3.716;2023-05-07T13:00:46;3.92;;;2.60;;
13959;SDS011;7052;51.050;3.716;2023-05-07T13:03:22;4.93;;;2.63;;
13959;SDS011;7052;51.050;3.716;2023-05-07T13:05:58;5.40;;;2.83;;
13959;SDS011;7052;51.050;3.716;2023-05-07T13:08:30;3.78;;;2.50;;
13959;SDS011;7052;51.050;3.716;2023-05-07T13:10:59;4.35;;;3.28;;
13959;SDS011;7052;51.050;3.716;2023-05-07T13:13:33;6.20;;;2.97;;
13959;SDS011;7052;51.050;3.716;2023-05-07T13:16:04;8.70;;;3.63;;
13959;SDS011;7052;51.050;3.716;2023-05-07T13:18:33;8.73;;;3.50;;
13959;SDS011;7052;51.050;3.716;2023-05-07T13:21:00;5.95;;;3.30;;
13959;SDS011;7052;51.050;3.716;2023-05-07T13:23:29;5.28;;;3.03;;
13959;SDS011;7052;51.050;3.716;2023-05-07T13:25:56;8.98;;;3.30;;
13959;SDS011;7052;51.050;3.716;2023-05-07T13:28:24;4.88;;;3.25;;
13959;SDS011;7052;51.050;3.716;2023-05-07T13:30:52;6.72;;;3.38;;
13959;SDS011;7052;51.050;3.716;2023-05-07T13:33:24;3.92;;;2.88;;
13959;SDS011;7052;51.050;3.716;2023-05-07T13:35:51;6.18;;;2.95;;
13959;SDS011;7052;51.050;3.716;2023-05-07T13:38:19;5.22;;;2.75;;
13959;SDS011;7052;51.050;3.716;2023-05-07T13:40:49;6.22;;;3.10;;
13959;SDS011;7052;51.050;3.716;2023-05-07T13:43:24;4.32;;;2.85;;
13959;SDS011;7052;51.050;3.716;2023-05-07T13:45:59;5.97;;;2.88;;
13959;SDS011;7052;51.050;3.716;2023-05-07T13:48:28;4.75;;;3.00;;
13959;SDS011;7052;51.050;3.716;2023-05-07T13:50:55;4.47;;;2.80;;
13959;SDS011;7052;51.050;3.716;2023-05-07T13:53:22;7.63;;;3.20;;
13959;SDS011;7052;51.050;3.716;2023-05-07T13:55:50;4.15;;;2.83;;
13959;SDS011;7052;51.050;3.716;2023-05-07T13:58:17;3.70;;;2.78;;
13959;SDS011;7052;51.050;3.716;2023-05-07T14:00:47;8.20;;;3.20;;
13959;SDS011;7052;51.050;3.716;2023-05-07T14:03:18;4.00;;;3.10;;
13959;SDS011;7052;51.050;3.716;2023-05-07T14:05:46;5.88;;;3.38;;
13959;SDS011;7052;51.050;3.716;2023-05-07T14:08:13;4.90;;;3.80;;
13959;SDS011;7052;51.050;3.716;2023-05-07T14:10:43;6.00;;;3.60;;
13959;SDS011;7052;51.050;3.716;2023-05-07T14:13:13;11.25;;;3.97;;
13959;SDS011;7052;51.050;3.716;2023-05-07T14:15:42;4.82;;;3.80;;
13959;SDS011;7052;51.050;3.716;2023-05-07T14:18:12;4.82;;;3.60;;
13959;SDS011;7052;51.050;3.716;2023-05-07T14:20:41;5.57;;;4.20;;
13959;SDS011;7052;51.050;3.716;2023-05-07T14:23:13;4.78;;;4.28;;
13959;SDS011;7052;51.050;3.716;2023-05-07T14:25:40;5.93;;;4.72;;
13959;SDS011;7052;51.050;3.716;2023-05-07T14:28:08;5.47;;;4.78;;
13959;SDS011;7052;51.050;3.716;2023-05-07T14:30:36;7.97;;;5.18;;
13959;SDS011;7052;51.050;3.716;2023-05-07T14:33:03;6.60;;;4.93;;
13959;SDS011;7052;51.050;3.716;2023-05-07T14:35:30;7.00;;;5.60;;
13959;SDS011;7052;51.050;3.716;2023-05-07T14:37:58;5.18;;;4.68;;
13959;SDS011;7052;51.050;3.716;2023-05-07T14:40:30;6.55;;;5.50;;
13959;SDS011;7052;51.050;3.716;2023-05-07T14:42:57;7.05;;;5.60;;
13959;SDS011;7052;51.050;3.716;2023-05-07T14:45:25;7.40;;;6.13;;
13959;SDS011;7052;51.050;3.716;2023-05-07T14:47:53;7.10;;;5.25;;
13959;SDS011;7052;51.050;3.716;2023-05-07T14:50:21;7.35;;;5.18;;
13959;SDS011;7052;51.050;3.716;2023-05-07T14:52:48;7.20;;;6.00;;
13959;SDS011;7052;51.050;3.716;2023-05-07T14:55:15;8.00;;;6.78;;
13959;SDS011;7052;51.050;3.716;2023-05-07T14:57:45;9.10;;;6.90;;
13959;SDS011;7052;51.050;3.716;2023-05-07T15:00:13;7.13;;;6.43;;
13959;SDS011;7052;51.050;3.716;2023-05-07T15:02:41;5.68;;;5.18;;
13959;SDS011;7052;51.050;3.716;2023-05-07T15:05:09;6.07;;;5.32;;
13959;SDS011;7052;51.050;3.716;2023-05-07T15:07:36;6.93;;;5.22;;
13959;SDS011;7052;51.050;3.716;2023-05-07T15:10:04;6.03;;;5.18;;
13959;SDS011;7052;51.050;3.716;2023-05-07T15:12:33;7.15;;;5.50;;
13959;SDS011;7052;51.050;3.716;2023-05-07T15:15:02;6.30;;;5.30;;
13959;SDS011;7052;51.050;3.716;2023-05-07T15:17:30;7.82;;;5.13;;
13959;SDS011;7052;51.050;3.716;2023-05-07T15:19:59;6.53;;;4.95;;
13959;SDS011;7052;51.050;3.716;2023-05-07T15:22:26;6.65;;;5.70;;
13959;SDS011;7052;51.050;3.716;2023-05-07T15:24:53;5.65;;;4.95;;
13959;SDS011;7052;51.050;3.716;2023-05-07T15:27:22;5.70;;;5.13;;